createdAt,value
2019-03-16T00:01:08.000Z,99599
2019-03-16T00:02:38.000Z,99599
2019-03-16T00:03:38.000Z,99602
2019-03-16T00:05:38.000Z,99593
2019-03-16T00:06:38.000Z,99591
2019-03-16T00:08:08.000Z,99592
2019-03-16T00:09:38.000Z,99590
2019-03-16T00:11:38.000Z,99595
2019-03-16T00:13:38.000Z,99602
2019-03-16T00:15:38.000Z,99608
2019-03-16T00:16:38.000Z,99611
2019-03-16T00:18:38.000Z,99612
2019-03-16T00:20:23.000Z,99604
2019-03-16T00:21:38.000Z,99596
2019-03-16T00:22:38.000Z,99596
2019-03-16T00:24:38.000Z,99604
2019-03-16T00:26:23.000Z,99616
2019-03-16T00:27:38.000Z,99615
2019-03-16T00:28:38.000Z,99608
2019-03-16T00:29:38.000Z,99614
2019-03-16T00:31:38.000Z,99619
2019-03-16T00:33:38.000Z,99622
2019-03-16T00:35:38.000Z,99609
2019-03-16T00:37:38.000Z,99612
2019-03-16T00:38:38.000Z,99613
2019-03-16T00:40:38.000Z,99626
2019-03-16T00:41:38.000Z,99628
2019-03-16T00:43:23.000Z,99620
2019-03-16T00:44:38.000Z,99619
2019-03-16T00:46:08.000Z,99611
2019-03-16T00:47:38.000Z,99611
2019-03-16T00:49:38.000Z,99618
2019-03-16T00:50:38.000Z,99616
2019-03-16T00:52:38.000Z,99621
2019-03-16T00:53:38.000Z,99620
2019-03-16T00:55:23.000Z,99619
2019-03-16T00:56:38.000Z,99609
2019-03-16T00:58:38.000Z,99611
2019-03-16T01:00:38.000Z,99604
2019-03-16T01:01:38.000Z,99600
2019-03-16T01:03:38.000Z,99616
2019-03-16T01:05:39.000Z,99621
2019-03-16T01:07:39.000Z,99623
2019-03-16T01:08:39.000Z,99627
2019-03-16T01:10:39.000Z,99632
2019-03-16T01:12:39.000Z,99634
2019-03-16T01:14:39.000Z,99627
2019-03-16T01:16:39.000Z,99618
2019-03-16T01:18:23.000Z,99622
2019-03-16T01:19:39.000Z,99622
2019-03-16T01:20:39.000Z,99627
2019-03-16T01:22:39.000Z,99635
2019-03-16T01:24:39.000Z,99628
2019-03-16T01:26:39.000Z,99644
2019-03-16T01:28:39.000Z,99635
2019-03-16T01:30:39.000Z,99633
2019-03-16T01:32:39.000Z,99635
2019-03-16T01:34:39.000Z,99637
2019-03-16T01:35:39.000Z,99639
2019-03-16T01:37:39.000Z,99632
2019-03-16T01:39:39.000Z,99641
2019-03-16T01:41:23.000Z,99637
2019-03-16T01:42:39.000Z,99635
2019-03-16T01:43:39.000Z,99636
2019-03-16T01:45:39.000Z,99637
2019-03-16T01:47:39.000Z,99626
2019-03-16T01:49:39.000Z,99628
2019-03-16T01:50:39.000Z,99627
2019-03-16T01:51:39.000Z,99621
2019-03-16T01:52:39.000Z,99620
2019-03-16T01:54:23.000Z,99614
2019-03-16T01:55:39.000Z,99616
2019-03-16T01:57:39.000Z,99617
2019-03-16T01:59:08.000Z,99618
2019-03-16T02:00:39.000Z,99621
2019-03-16T02:02:39.000Z,99629
2019-03-16T02:04:39.000Z,99636
2019-03-16T02:05:39.000Z,99635
2019-03-16T02:07:39.000Z,99633
2019-03-16T02:09:24.000Z,99629
2019-03-16T02:11:39.000Z,99631
2019-03-16T02:13:39.000Z,99638
2019-03-16T02:15:39.000Z,99634
2019-03-16T02:17:39.000Z,99629
2019-03-16T02:18:39.000Z,99630
2019-03-16T02:20:39.000Z,99634
2019-03-16T02:21:39.000Z,99634
2019-03-16T02:23:39.000Z,99621
2019-03-16T02:25:39.000Z,99619
2019-03-16T02:27:24.000Z,99617
2019-03-16T02:28:39.000Z,99615
2019-03-16T02:29:39.000Z,99617
2019-03-16T02:30:39.000Z,99612
2019-03-16T02:32:39.000Z,99618
2019-03-16T02:34:24.000Z,99616
2019-03-16T02:35:24.000Z,99619
2019-03-16T02:36:39.000Z,99626
2019-03-16T02:38:39.000Z,99624
2019-03-16T02:39:39.000Z,99622
2019-03-16T02:41:24.000Z,99618
2019-03-16T02:42:39.000Z,99623
2019-03-16T02:43:39.000Z,99625
2019-03-16T02:45:39.000Z,99635
2019-03-16T02:47:39.000Z,99646
2019-03-16T02:49:39.000Z,99637
2019-03-16T02:51:39.000Z,99639
2019-03-16T02:53:39.000Z,99626
2019-03-16T02:54:39.000Z,99619
2019-03-16T02:55:39.000Z,99623
2019-03-16T02:57:39.000Z,99628
2019-03-16T02:59:39.000Z,99629
2019-03-16T03:01:24.000Z,99633
2019-03-16T03:03:24.000Z,99629
2019-03-16T03:05:39.000Z,99631
2019-03-16T03:06:39.000Z,99629
2019-03-16T03:08:39.000Z,99626
2019-03-16T03:10:39.000Z,99617
2019-03-16T03:12:39.000Z,99617
2019-03-16T03:14:39.000Z,99621
2019-03-16T03:15:39.000Z,99619
2019-03-16T03:17:08.000Z,99613
2019-03-16T03:18:39.000Z,99615
2019-03-16T03:20:39.000Z,99629
2019-03-16T03:22:39.000Z,99632
2019-03-16T03:24:39.000Z,99628
2019-03-16T03:26:39.000Z,99632
2019-03-16T03:28:39.000Z,99637
2019-03-16T03:30:23.000Z,99637
2019-03-16T03:31:39.000Z,99641
2019-03-16T03:33:39.000Z,99638
2019-03-16T03:35:24.000Z,99634
2019-03-16T03:36:39.000Z,99643
2019-03-16T03:37:39.000Z,99649
2019-03-16T03:39:39.000Z,99647
2019-03-16T03:41:39.000Z,99640
2019-03-16T03:43:23.000Z,99640
2019-03-16T03:44:39.000Z,99639
2019-03-16T03:45:39.000Z,99637
2019-03-16T03:46:39.000Z,99634
2019-03-16T03:48:23.000Z,99632
2019-03-16T03:49:39.000Z,99644
2019-03-16T03:51:23.000Z,99639
2019-03-16T03:52:39.000Z,99645
2019-03-16T03:54:24.000Z,99643
2019-03-16T03:55:39.000Z,99645
2019-03-16T03:57:39.000Z,99636
2019-03-16T03:59:39.000Z,99632
2019-03-16T04:01:39.000Z,99633
2019-03-16T04:03:08.000Z,99634
2019-03-16T04:04:15.000Z,99635
2019-03-16T04:05:39.000Z,99634
2019-03-16T04:07:39.000Z,99636
2019-03-16T04:08:39.000Z,99636
2019-03-16T04:10:39.000Z,99639
2019-03-16T04:12:39.000Z,99641
2019-03-16T04:14:39.000Z,99644
2019-03-16T04:15:39.000Z,99642
2019-03-16T04:17:39.000Z,99637
2019-03-16T04:19:24.000Z,99635
2019-03-16T04:20:39.000Z,99638
2019-03-16T04:22:39.000Z,99638
2019-03-16T04:24:24.000Z,99642
2019-03-16T04:25:39.000Z,99642
2019-03-16T04:27:09.000Z,99640
2019-03-16T04:28:39.000Z,99643
2019-03-16T04:29:39.000Z,99640
2019-03-16T04:30:39.000Z,99643
2019-03-16T04:32:24.000Z,99640
2019-03-16T04:33:39.000Z,99636
2019-03-16T04:35:24.000Z,99635
2019-03-16T04:36:39.000Z,99637
2019-03-16T04:38:39.000Z,99638
2019-03-16T04:39:39.000Z,99633
2019-03-16T04:40:39.000Z,99638
2019-03-16T04:42:39.000Z,99635
2019-03-16T04:43:39.000Z,99639
2019-03-16T04:45:39.000Z,99632
2019-03-16T04:46:39.000Z,99635
2019-03-16T04:48:24.000Z,99629
2019-03-16T04:49:39.000Z,99633
2019-03-16T04:51:39.000Z,99633
2019-03-16T04:52:39.000Z,99631
2019-03-16T04:53:39.000Z,99627
2019-03-16T04:55:39.000Z,99629
2019-03-16T04:57:39.000Z,99626
2019-03-16T04:59:39.000Z,99625
2019-03-16T05:00:39.000Z,99628
2019-03-16T05:02:24.000Z,99622
2019-03-16T05:04:39.000Z,99628
2019-03-16T05:06:39.000Z,99631
2019-03-16T05:08:24.000Z,99635
2019-03-16T05:09:39.000Z,99620
2019-03-16T05:11:24.000Z,99623
2019-03-16T05:12:39.000Z,99613
2019-03-16T05:14:24.000Z,99615
2019-03-16T05:15:39.000Z,99620
2019-03-16T05:17:24.000Z,99614
2019-03-16T05:18:24.000Z,99612
2019-03-16T05:19:39.000Z,99609
2019-03-16T05:20:39.000Z,99612
2019-03-16T05:22:39.000Z,99615
2019-03-16T05:24:39.000Z,99619
2019-03-16T05:26:39.000Z,99618
2019-03-16T05:28:24.000Z,99618
2019-03-16T05:29:24.000Z,99611
2019-03-16T05:31:39.000Z,99619
2019-03-16T05:33:39.000Z,99615
2019-03-16T05:35:39.000Z,99619
2019-03-16T05:37:39.000Z,99615
2019-03-16T05:39:39.000Z,99610
2019-03-16T05:40:39.000Z,99611
2019-03-16T05:41:39.000Z,99605
2019-03-16T05:43:39.000Z,99609
2019-03-16T05:44:39.000Z,99607
2019-03-16T05:46:39.000Z,99609
2019-03-16T05:47:39.000Z,99602
2019-03-16T05:49:24.000Z,99608
2019-03-16T05:50:39.000Z,99608
2019-03-16T05:52:39.000Z,99601
2019-03-16T05:53:39.000Z,99603
2019-03-16T05:55:39.000Z,99604
2019-03-16T05:57:39.000Z,99599
2019-03-16T05:58:39.000Z,99599
2019-03-16T05:59:39.000Z,99596
2019-03-16T06:01:39.000Z,99592
2019-03-16T06:02:39.000Z,99593
2019-03-16T06:03:39.000Z,99593
2019-03-16T06:05:09.000Z,99587
2019-03-16T06:48:14.000Z,99584
2019-03-16T06:49:45.000Z,99584
2019-03-16T06:52:00.000Z,99576
2019-03-16T06:53:45.000Z,99580
2019-03-16T06:56:00.000Z,99573
2019-03-16T06:57:00.000Z,99573
2019-03-16T06:58:45.000Z,99570
2019-03-16T07:00:00.000Z,99571
2019-03-16T07:01:00.000Z,99564
2019-03-16T07:02:00.000Z,99566
2019-03-16T07:04:00.000Z,99568
2019-03-16T07:05:00.000Z,99561
2019-03-16T07:07:00.000Z,99564
2019-03-16T07:08:00.000Z,99560
2019-03-16T07:09:00.000Z,99566
2019-03-16T07:10:00.000Z,99571
2019-03-16T07:12:00.000Z,99568
2019-03-16T07:13:00.000Z,99566
2019-03-16T07:15:00.000Z,99557
2019-03-16T07:17:00.000Z,99556
2019-03-16T07:18:45.000Z,99551
2019-03-16T07:21:00.000Z,99546
2019-03-16T07:23:00.000Z,99549
2019-03-16T07:25:00.000Z,99545
2019-03-16T07:27:00.000Z,99546
2019-03-16T07:29:00.000Z,99540
2019-03-16T07:31:00.000Z,99533
2019-03-16T07:32:45.000Z,99531
2019-03-16T07:34:00.000Z,99526
2019-03-16T07:35:45.000Z,99529
2019-03-16T07:37:00.000Z,99526
2019-03-16T07:38:00.000Z,99526
2019-03-16T07:39:00.000Z,99522
2019-03-16T07:41:00.000Z,99519
2019-03-16T07:42:00.000Z,99512
2019-03-16T07:44:00.000Z,99510
2019-03-16T07:46:00.000Z,99504
2019-03-16T07:48:00.000Z,99507
2019-03-16T07:50:00.000Z,99507
2019-03-16T07:51:00.000Z,99515
2019-03-16T07:53:00.000Z,99506
2019-03-16T07:54:30.000Z,99504
2019-03-16T07:56:00.000Z,99500
2019-03-16T07:57:00.000Z,99498
2019-03-16T07:59:00.000Z,99503
2019-03-16T08:00:00.000Z,99507
2019-03-16T08:01:00.000Z,99511
2019-03-16T08:03:00.000Z,99506
2019-03-16T08:05:00.000Z,99511
2019-03-16T08:06:00.000Z,99516
2019-03-16T08:08:00.000Z,99507
2019-03-16T08:10:00.000Z,99503
2019-03-16T08:11:00.000Z,99505
2019-03-16T08:12:00.000Z,99514
2019-03-16T08:13:45.000Z,99515
2019-03-16T08:15:00.000Z,99513
2019-03-16T08:16:45.000Z,99518
2019-03-16T08:18:00.000Z,99515
2019-03-16T08:19:45.000Z,99520
2019-03-16T08:22:00.000Z,99507
2019-03-16T08:23:00.000Z,99513
2019-03-16T08:25:00.000Z,99508
2019-03-16T08:27:00.000Z,99493
2019-03-16T08:28:45.000Z,99506
2019-03-16T08:29:45.000Z,99497
2019-03-16T08:31:00.000Z,99506
2019-03-16T08:32:45.000Z,99508
2019-03-16T08:34:00.000Z,99509
2019-03-16T08:35:45.000Z,99511
2019-03-16T08:37:00.000Z,99504
2019-03-16T08:39:00.000Z,99502
2019-03-16T08:41:00.000Z,99513
2019-03-16T08:42:00.000Z,99503
2019-03-16T08:43:00.000Z,99508
2019-03-16T08:44:45.000Z,99497
2019-03-16T08:46:00.000Z,99509
2019-03-16T08:47:30.000Z,99500
2019-03-16T08:49:00.000Z,99504
2019-03-16T08:50:00.000Z,99493
2019-03-16T08:52:00.000Z,99492
2019-03-16T08:54:00.000Z,99490
2019-03-16T08:55:00.000Z,99484
2019-03-16T08:56:00.000Z,99482
2019-03-16T08:57:45.000Z,99490
2019-03-16T08:59:00.000Z,99495
2019-03-16T09:00:00.000Z,99497
2019-03-16T09:01:00.000Z,99501
2019-03-16T09:03:00.000Z,99501
2019-03-16T09:05:00.000Z,99496
2019-03-16T09:07:00.000Z,99499
2019-03-16T09:08:00.000Z,99498
2019-03-16T09:10:00.000Z,99491
2019-03-16T09:11:00.000Z,99494
2019-03-16T09:12:45.000Z,99484
2019-03-16T09:15:00.000Z,99498
2019-03-16T09:17:00.000Z,99496
2019-03-16T09:18:45.000Z,99502
2019-03-16T09:20:00.000Z,99495
2019-03-16T09:21:00.000Z,99503
2019-03-16T09:23:00.000Z,99506
2019-03-16T09:24:00.000Z,99506
2019-03-16T09:25:00.000Z,99509
2019-03-16T09:27:00.000Z,99506
2019-03-16T09:29:00.000Z,99504
2019-03-16T09:30:00.000Z,99505
2019-03-16T09:32:00.000Z,99513
2019-03-16T09:33:44.000Z,99500
2019-03-16T09:34:59.000Z,99506
2019-03-16T09:36:44.000Z,99485
2019-03-16T09:37:59.000Z,99491
2019-03-16T09:38:59.000Z,99494
2019-03-16T09:40:44.000Z,99493
2019-03-16T09:41:59.000Z,99488
2019-03-16T09:43:59.000Z,99488
2019-03-16T09:45:59.000Z,99485
2019-03-16T09:47:44.000Z,99490
2019-03-16T09:48:59.000Z,99497
2019-03-16T09:50:59.000Z,99496
2019-03-16T09:52:59.000Z,99495
2019-03-16T09:54:59.000Z,99500
2019-03-16T09:56:59.000Z,99470
2019-03-16T09:58:30.000Z,99491
2019-03-16T09:59:59.000Z,99482
2019-03-16T10:00:59.000Z,99484
2019-03-16T10:01:59.000Z,99485
2019-03-16T10:03:59.000Z,99482
2019-03-16T10:05:29.000Z,99475
2019-03-16T10:06:59.000Z,99475
2019-03-16T10:08:59.000Z,99461
2019-03-16T10:09:59.000Z,99465
2019-03-16T10:11:59.000Z,99463
2019-03-16T10:13:59.000Z,99458
2019-03-16T10:15:59.000Z,99454
2019-03-16T10:52:54.000Z,99444
2019-03-16T10:54:40.000Z,99436
2019-03-16T10:56:40.000Z,99429
2019-03-16T10:57:40.000Z,99418
2019-03-16T10:59:24.000Z,99418
2019-03-16T11:00:40.000Z,99415
2019-03-16T11:02:40.000Z,99418
2019-03-16T11:04:40.000Z,99412
2019-03-16T11:06:24.000Z,99409
2019-03-16T11:07:40.000Z,99411
2019-03-16T11:09:25.000Z,99396
2019-03-16T11:11:40.000Z,99401
2019-03-16T11:12:40.000Z,99404
2019-03-16T11:13:40.000Z,99408
2019-03-16T11:15:40.000Z,99406
2019-03-16T11:17:25.000Z,99409
2019-03-16T11:19:40.000Z,99410
2019-03-16T11:20:40.000Z,99408
2019-03-16T11:22:09.000Z,99404
2019-03-16T11:23:40.000Z,99412
2019-03-16T11:24:40.000Z,99407
2019-03-16T11:26:24.000Z,99410
2019-03-16T11:27:40.000Z,99416
2019-03-16T11:29:40.000Z,99418
2019-03-16T11:31:24.000Z,99417
2019-03-16T11:32:40.000Z,99410
2019-03-16T11:34:40.000Z,99403
2019-03-16T11:35:40.000Z,99400
2019-03-16T11:37:40.000Z,99397
2019-03-16T11:38:39.000Z,99404
2019-03-16T11:40:39.000Z,99408
2019-03-16T11:41:39.000Z,99400
2019-03-16T11:42:39.000Z,99405
2019-03-16T11:44:39.000Z,99404
2019-03-16T11:46:24.000Z,99414
2019-03-16T11:48:39.000Z,99406
2019-03-16T11:49:39.000Z,99401
2019-03-16T11:51:39.000Z,99420
2019-03-16T11:53:39.000Z,99406
2019-03-16T11:55:39.000Z,99400
2019-03-16T11:57:39.000Z,99416
2019-03-16T11:58:39.000Z,99400
2019-03-16T12:00:39.000Z,99408
2019-03-16T12:02:39.000Z,99404
2019-03-16T12:04:39.000Z,99405
2019-03-16T12:06:39.000Z,99400
2019-03-16T12:08:39.000Z,99405
2019-03-16T12:09:39.000Z,99406
2019-03-16T12:10:39.000Z,99404
2019-03-16T12:11:39.000Z,99385
2019-03-16T12:13:09.000Z,99391
2019-03-16T12:14:39.000Z,99391
2019-03-16T12:15:39.000Z,99389
2019-03-16T12:17:39.000Z,99390
2019-03-16T12:19:39.000Z,99388
2019-03-16T12:21:39.000Z,99397
2019-03-16T12:22:39.000Z,99402
2019-03-16T12:24:39.000Z,99404
2019-03-16T12:25:39.000Z,99389
2019-03-16T12:27:39.000Z,99376
2019-03-16T12:29:25.000Z,99403
2019-03-16T12:31:39.000Z,99390
2019-03-16T12:33:39.000Z,99383
2019-03-16T12:34:39.000Z,99378
2019-03-16T12:35:39.000Z,99386
2019-03-16T12:36:39.000Z,99390
2019-03-16T12:38:39.000Z,99377
2019-03-16T12:40:39.000Z,99375
2019-03-16T12:42:39.000Z,99376
2019-03-16T12:44:39.000Z,99375
2019-03-16T12:46:39.000Z,99373
2019-03-16T12:48:39.000Z,99376
2019-03-16T12:50:24.000Z,99372
2019-03-16T12:51:39.000Z,99369
2019-03-16T12:52:39.000Z,99371
2019-03-16T12:54:39.000Z,99370
2019-03-16T12:55:39.000Z,99372
2019-03-16T12:56:39.000Z,99369
2019-03-16T12:58:39.000Z,99371
2019-03-16T13:00:39.000Z,99370
2019-03-16T13:02:39.000Z,99358
2019-03-16T13:04:39.000Z,99369
2019-03-16T13:06:39.000Z,99375
2019-03-16T13:07:39.000Z,99374
2019-03-16T13:09:39.000Z,99352
2019-03-16T13:11:39.000Z,99367
2019-03-16T13:12:39.000Z,99360
2019-03-16T13:13:39.000Z,99361
2019-03-16T13:15:39.000Z,99355
2019-03-16T13:17:39.000Z,99365
2019-03-16T13:19:09.000Z,99353
2019-03-16T13:20:39.000Z,99367
2019-03-16T13:22:24.000Z,99356
2019-03-16T13:23:39.000Z,99356
2019-03-16T13:24:39.000Z,99363
2019-03-16T13:26:39.000Z,99344
2019-03-16T13:27:39.000Z,99342
2019-03-16T13:29:39.000Z,99345
2019-03-16T13:31:39.000Z,99334
2019-03-16T13:32:39.000Z,99335
2019-03-16T13:34:39.000Z,99347
2019-03-16T13:36:24.000Z,99343
2019-03-16T13:37:39.000Z,99336
2019-03-16T13:39:24.000Z,99342
2019-03-16T13:41:39.000Z,99351
2019-03-16T13:42:39.000Z,99343
2019-03-16T13:43:39.000Z,99327
2019-03-16T13:45:39.000Z,99341
2019-03-16T13:47:25.000Z,99334
2019-03-16T13:49:40.000Z,99335
2019-03-16T13:51:24.000Z,99338
2019-03-16T13:53:25.000Z,99339
2019-03-16T13:55:40.000Z,99336
2019-03-16T13:57:24.000Z,99336
2019-03-16T13:58:40.000Z,99333
2019-03-16T14:00:09.000Z,99325
2019-03-16T14:01:40.000Z,99322
2019-03-16T14:03:40.000Z,99324
2019-03-16T14:05:10.000Z,99335
2019-03-16T14:06:25.000Z,99311
2019-03-16T14:08:10.000Z,99316
2019-03-16T14:09:25.000Z,99315
2019-03-16T14:10:40.000Z,99318
2019-03-16T14:11:40.000Z,99322
2019-03-16T14:13:24.000Z,99307
2019-03-16T14:14:40.000Z,99313
2019-03-16T14:16:25.000Z,99311
2019-03-16T14:17:40.000Z,99308
2019-03-16T14:19:10.000Z,99309
2019-03-16T14:20:25.000Z,99305
2019-03-16T14:22:40.000Z,99311
2019-03-16T14:24:25.000Z,99311
2019-03-16T14:26:40.000Z,99311
2019-03-16T14:28:25.000Z,99310
2019-03-16T14:30:25.000Z,99308
2019-03-16T14:32:40.000Z,99310
2019-03-16T14:34:40.000Z,99319
2019-03-16T14:36:10.000Z,99301
2019-03-16T14:37:25.000Z,99304
2019-03-16T14:39:40.000Z,99297
2019-03-16T14:41:25.000Z,99303
2019-03-16T14:42:40.000Z,99282
2019-03-16T14:44:25.000Z,99277
2019-03-16T14:45:40.000Z,99297
2019-03-16T14:47:09.000Z,99285
2019-03-16T14:48:25.000Z,99287
2019-03-16T14:49:40.000Z,99290
2019-03-16T14:51:40.000Z,99290
2019-03-16T14:53:40.000Z,99285
2019-03-16T14:55:40.000Z,99281
2019-03-16T14:57:40.000Z,99266
2019-03-16T14:59:40.000Z,99262
2019-03-16T15:01:10.000Z,99259
2019-03-16T15:02:40.000Z,99254
2019-03-16T15:03:40.000Z,99260
2019-03-16T15:05:40.000Z,99256
2019-03-16T15:07:40.000Z,99268
2019-03-16T15:08:40.000Z,99253
2019-03-16T15:09:40.000Z,99259
2019-03-16T15:11:40.000Z,99252
2019-03-16T15:12:40.000Z,99252
2019-03-16T15:14:10.000Z,99239
2019-03-16T15:15:40.000Z,99254
2019-03-16T15:16:40.000Z,99246
2019-03-16T15:18:25.000Z,99236
2019-03-16T15:19:40.000Z,99249
2019-03-16T15:21:40.000Z,99237
2019-03-16T15:23:40.000Z,99236
2019-03-16T15:25:10.000Z,99247
2019-03-16T15:26:40.000Z,99249
2019-03-16T15:27:40.000Z,99245
2019-03-16T15:29:40.000Z,99236
2019-03-16T15:30:40.000Z,99242
2019-03-16T15:32:40.000Z,99239
2019-03-16T15:34:40.000Z,99234
2019-03-16T15:35:40.000Z,99225
2019-03-16T15:37:40.000Z,99238
2019-03-16T15:39:40.000Z,99224
2019-03-16T15:41:40.000Z,99222
2019-03-16T15:42:40.000Z,99221
2019-03-16T15:44:40.000Z,99218
2019-03-16T15:46:40.000Z,99214
2019-03-16T15:48:40.000Z,99223
2019-03-16T15:49:40.000Z,99216
2019-03-16T15:51:25.000Z,99219
2019-03-16T15:52:40.000Z,99217
2019-03-16T15:53:40.000Z,99221
2019-03-16T15:55:24.000Z,99222
2019-03-16T15:57:39.000Z,99212
2019-03-16T15:59:39.000Z,99210
2019-03-16T16:01:39.000Z,99202
2019-03-16T16:03:24.000Z,99205
2019-03-16T16:04:39.000Z,99203
2019-03-16T16:06:39.000Z,99207
2019-03-16T16:08:39.000Z,99184
2019-03-16T16:09:39.000Z,99200
2019-03-16T16:11:39.000Z,99198
2019-03-16T16:13:24.000Z,99183
2019-03-16T16:14:39.000Z,99184
2019-03-16T16:15:39.000Z,99184
2019-03-16T16:17:39.000Z,99181
2019-03-16T16:19:24.000Z,99185
2019-03-16T16:20:39.000Z,99172
2019-03-16T16:22:39.000Z,99183
2019-03-16T16:24:39.000Z,99171
2019-03-16T16:25:39.000Z,99167
2019-03-16T16:27:39.000Z,99168
2019-03-16T16:29:24.000Z,99159
2019-03-16T16:30:39.000Z,99154
2019-03-16T16:32:39.000Z,99163
2019-03-16T16:34:39.000Z,99162
2019-03-16T16:35:39.000Z,99165
2019-03-16T16:37:39.000Z,99150
2019-03-16T16:38:39.000Z,99160
2019-03-16T16:40:39.000Z,99164
2019-03-16T16:42:24.000Z,99165
2019-03-16T16:43:39.000Z,99157
2019-03-16T16:45:39.000Z,99161
2019-03-16T16:46:39.000Z,99158
2019-03-16T16:48:39.000Z,99162
2019-03-16T16:50:39.000Z,99168
2019-03-16T16:52:39.000Z,99159
2019-03-16T16:54:39.000Z,99157
2019-03-16T16:55:39.000Z,99168
2019-03-16T16:57:24.000Z,99165
2019-03-16T16:59:40.000Z,99162
2019-03-16T17:01:24.000Z,99161
2019-03-16T17:02:40.000Z,99157
2019-03-16T17:03:40.000Z,99160
2019-03-16T17:04:40.000Z,99160
2019-03-16T17:06:40.000Z,99159
2019-03-16T17:08:24.000Z,99165
2019-03-16T17:09:40.000Z,99154
2019-03-16T17:11:25.000Z,99150
2019-03-16T17:13:40.000Z,99160
2019-03-16T17:15:40.000Z,99155
2019-03-16T17:17:25.000Z,99165
2019-03-16T17:19:40.000Z,99160
2019-03-16T17:21:40.000Z,99156
2019-03-16T17:23:40.000Z,99158
2019-03-16T17:24:40.000Z,99145
2019-03-16T17:26:40.000Z,99152
2019-03-16T17:28:40.000Z,99150
2019-03-16T17:29:40.000Z,99140
2019-03-16T17:31:40.000Z,99138
2019-03-16T17:33:40.000Z,99132
2019-03-16T17:35:24.000Z,99130
2019-03-16T17:36:40.000Z,99134
2019-03-16T17:38:40.000Z,99139
2019-03-16T17:40:40.000Z,99134
2019-03-16T17:41:40.000Z,99130
2019-03-16T17:43:40.000Z,99137
2019-03-16T17:45:40.000Z,99134
2019-03-16T17:47:40.000Z,99125
2019-03-16T17:48:40.000Z,99132
2019-03-16T17:50:40.000Z,99127
2019-03-16T17:52:24.000Z,99127
2019-03-16T17:53:40.000Z,99127
2019-03-16T17:55:40.000Z,99129
2019-03-16T17:57:40.000Z,99120
2019-03-16T17:58:40.000Z,99125
2019-03-16T18:00:40.000Z,99119
2019-03-16T18:02:40.000Z,99113
2019-03-16T18:04:25.000Z,99117
2019-03-16T18:06:40.000Z,99125
2019-03-16T18:08:40.000Z,99117
2019-03-16T18:10:40.000Z,99123
2019-03-16T18:12:40.000Z,99122
2019-03-16T18:14:40.000Z,99119
2019-03-16T18:16:40.000Z,99115
2019-03-16T18:17:40.000Z,99122
2019-03-16T18:19:40.000Z,99111
2019-03-16T18:21:25.000Z,99119
2019-03-16T18:22:40.000Z,99122
2019-03-16T18:24:40.000Z,99122
2019-03-16T18:26:40.000Z,99124
2019-03-16T18:28:40.000Z,99119
2019-03-16T18:30:40.000Z,99122
2019-03-16T18:31:40.000Z,99121
2019-03-16T18:33:40.000Z,99121
2019-03-16T18:35:40.000Z,99120
2019-03-16T18:37:40.000Z,99116
2019-03-16T18:38:40.000Z,99117
2019-03-16T18:40:25.000Z,99113
2019-03-16T18:41:40.000Z,99116
2019-03-16T18:43:40.000Z,99110
2019-03-16T18:45:40.000Z,99105
2019-03-16T18:46:40.000Z,99107
2019-03-16T18:48:40.000Z,99105
2019-03-16T18:50:40.000Z,99107
2019-03-16T18:52:25.000Z,99108
2019-03-16T18:53:40.000Z,99102
2019-03-16T18:54:40.000Z,99107
2019-03-16T18:56:40.000Z,99094
2019-03-16T18:58:25.000Z,99102
2019-03-16T19:00:40.000Z,99094
2019-03-16T19:02:20.000Z,99105
2019-03-16T19:04:40.000Z,99100
2019-03-16T19:06:25.000Z,99093
2019-03-16T19:07:40.000Z,99090
2019-03-16T19:08:40.000Z,99086
2019-03-16T19:10:40.000Z,99080
2019-03-16T19:12:25.000Z,99096
2019-03-16T19:13:40.000Z,99085
2019-03-16T19:15:40.000Z,99092
2019-03-16T19:16:40.000Z,99091
2019-03-16T19:17:40.000Z,99084
2019-03-16T19:19:40.000Z,99085
2019-03-16T19:20:40.000Z,99082
2019-03-16T19:22:10.000Z,99078
2019-03-16T19:23:10.000Z,99079
2019-03-16T19:24:25.000Z,99074
2019-03-16T19:25:40.000Z,99073
2019-03-16T19:27:40.000Z,99067
2019-03-16T19:29:25.000Z,99065
2019-03-16T19:30:40.000Z,99076
2019-03-16T19:32:25.000Z,99065
2019-03-16T19:34:40.000Z,99063
2019-03-16T19:36:40.000Z,99059
2019-03-16T19:38:10.000Z,99058
2019-03-16T19:39:40.000Z,99056
2019-03-16T19:40:40.000Z,99044
2019-03-16T19:41:40.000Z,99035
2019-03-16T19:43:40.000Z,99047
2019-03-16T19:45:40.000Z,99045
2019-03-16T19:47:25.000Z,99041
2019-03-16T19:48:40.000Z,99039
2019-03-16T19:50:40.000Z,99039
2019-03-16T19:51:40.000Z,99037
2019-03-16T19:53:40.000Z,99035
2019-03-16T19:54:40.000Z,99034
2019-03-16T19:55:40.000Z,99033
2019-03-16T19:57:10.000Z,99029
2019-03-16T19:58:40.000Z,99020
2019-03-16T19:59:40.000Z,99027
2019-03-16T20:01:40.000Z,99024
2019-03-16T20:03:25.000Z,99007
2019-03-16T20:04:25.000Z,99014
2019-03-16T20:06:25.000Z,99018
2019-03-16T20:08:40.000Z,99018
2019-03-16T20:10:10.000Z,99017
2019-03-16T20:11:40.000Z,99020
2019-03-16T20:13:40.000Z,99017
2019-03-16T20:14:40.000Z,99016
2019-03-16T20:16:25.000Z,99013
2019-03-16T20:17:40.000Z,99007
2019-03-16T20:19:40.000Z,99001
2019-03-16T20:21:40.000Z,99002
2019-03-16T20:23:40.000Z,99005
2019-03-16T20:24:40.000Z,99001
2019-03-16T20:26:10.000Z,98995
2019-03-16T20:27:40.000Z,98990
2019-03-16T20:29:40.000Z,98985
2019-03-16T20:31:25.000Z,98992
2019-03-16T20:32:40.000Z,98995
2019-03-16T20:34:40.000Z,98988
2019-03-16T20:35:40.000Z,98977
2019-03-16T20:37:40.000Z,98990
2019-03-16T20:39:25.000Z,98987
2019-03-16T20:41:25.000Z,98983
2019-03-16T20:43:40.000Z,98964
2019-03-16T20:45:10.000Z,98985
2019-03-16T20:46:40.000Z,98981
2019-03-16T20:47:40.000Z,98981
2019-03-16T20:48:40.000Z,98978
2019-03-16T20:50:40.000Z,98977
2019-03-16T20:52:25.000Z,98971
2019-03-16T20:53:40.000Z,98976
2019-03-16T20:55:10.000Z,98975
2019-03-16T20:56:40.000Z,98966
2019-03-16T20:58:40.000Z,98969
2019-03-16T20:59:40.000Z,98972
2019-03-16T21:01:10.000Z,98975
2019-03-16T21:02:40.000Z,98957
2019-03-16T21:04:40.000Z,98954
2019-03-16T21:05:40.000Z,98962
2019-03-16T21:07:40.000Z,98952
2019-03-16T21:08:40.000Z,98957
2019-03-16T21:10:40.000Z,98959
2019-03-16T21:12:40.000Z,98953
2019-03-16T21:14:40.000Z,98942
2019-03-16T21:16:25.000Z,98948
2019-03-16T21:17:40.000Z,98948
2019-03-16T21:18:40.000Z,98959
2019-03-16T21:20:40.000Z,98945
2019-03-16T21:22:25.000Z,98948
2019-03-16T21:24:40.000Z,98946
2019-03-16T21:25:40.000Z,98942
2019-03-16T21:27:40.000Z,98943
2019-03-16T21:29:25.000Z,98940
2019-03-16T21:31:40.000Z,98943
2019-03-16T21:32:40.000Z,98939
2019-03-16T21:34:09.000Z,98931
2019-03-16T21:35:40.000Z,98932
2019-03-16T21:37:40.000Z,98941
2019-03-16T21:38:40.000Z,98938
2019-03-16T21:40:40.000Z,98923
2019-03-16T21:42:40.000Z,98927
2019-03-16T21:43:40.000Z,98919
2019-03-16T21:44:40.000Z,98919
2019-03-16T21:46:25.000Z,98915
2019-03-16T21:47:40.000Z,98920
2019-03-16T21:49:40.000Z,98911
2019-03-16T21:51:40.000Z,98916
2019-03-16T21:53:40.000Z,98903
2019-03-16T21:55:40.000Z,98899
2019-03-16T21:57:10.000Z,98887
2019-03-16T21:58:40.000Z,98889
2019-03-16T22:00:25.000Z,98890
2019-03-16T22:01:25.000Z,98889
2019-03-16T22:02:40.000Z,98878
2019-03-16T22:04:40.000Z,98885